createdAt,value
2023-04-30T00:00:11.299Z,76.50
2023-04-30T00:02:39.245Z,76.06
2023-04-30T00:05:07.585Z,76.04
2023-04-30T00:07:35.334Z,76.18
2023-04-30T00:10:04.705Z,76.03
2023-04-30T00:12:34.925Z,76.50
2023-04-30T00:15:02.719Z,75.85
2023-04-30T00:17:30.586Z,76.00
2023-04-30T00:19:58.371Z,75.62
2023-04-30T00:22:26.166Z,76.02
2023-04-30T00:24:53.961Z,75.89
2023-04-30T00:27:21.825Z,75.43
2023-04-30T00:29:51.060Z,75.55
2023-04-30T00:32:18.932Z,75.60
2023-04-30T00:34:47.039Z,75.29
2023-04-30T00:37:14.805Z,75.50
2023-04-30T00:39:42.653Z,75.76
2023-04-30T00:42:10.427Z,75.41
2023-04-30T00:44:38.200Z,75.78
2023-04-30T00:47:07.319Z,75.57
2023-04-30T00:49:35.236Z,75.65
2023-04-30T00:52:03.074Z,75.45
2023-04-30T00:54:31.048Z,75.29
2023-04-30T00:56:59.538Z,75.67
2023-04-30T00:59:27.606Z,75.48
2023-04-30T01:01:56.111Z,75.28
2023-04-30T01:04:25.480Z,75.51
2023-04-30T01:06:53.353Z,75.17
2023-04-30T01:09:21.184Z,75.29
2023-04-30T01:11:57.993Z,75.49
2023-04-30T01:14:29.396Z,75.18
2023-04-30T01:17:06.443Z,75.82
2023-04-30T01:19:42.766Z,75.79
2023-04-30T01:22:13.625Z,75.57
2023-04-30T01:24:53.855Z,75.53
2023-04-30T01:27:31.316Z,75.49
2023-04-30T01:30:00.878Z,74.95
2023-04-30T01:32:28.672Z,75.02
2023-04-30T01:34:56.913Z,75.01
2023-04-30T01:37:32.726Z,74.94
2023-04-30T01:40:10.639Z,74.58
2023-04-30T01:42:43.287Z,75.08
2023-04-30T01:45:22.948Z,74.64
2023-04-30T01:47:54.565Z,74.24
2023-04-30T01:50:28.345Z,74.31
2023-04-30T01:52:59.050Z,74.96
2023-04-30T01:55:30.112Z,75.12
2023-04-30T01:57:59.583Z,74.96
2023-04-30T02:00:30.619Z,75.33
2023-04-30T02:02:58.671Z,75.10
2023-04-30T02:05:26.557Z,74.58
2023-04-30T02:07:54.647Z,74.65
2023-04-30T02:10:23.589Z,75.28
2023-04-30T02:12:51.499Z,74.86
2023-04-30T02:15:19.315Z,74.83
2023-04-30T02:17:48.518Z,74.81
2023-04-30T02:20:16.283Z,74.83
2023-04-30T02:22:44.332Z,74.88
2023-04-30T02:25:12.731Z,74.92
2023-04-30T02:27:40.593Z,75.04
2023-04-30T02:30:09.458Z,74.20
2023-04-30T02:32:37.501Z,73.83
2023-04-30T02:35:07.443Z,74.35
2023-04-30T02:37:35.198Z,74.39
2023-04-30T02:40:03.123Z,73.65
2023-04-30T02:42:30.969Z,73.50
2023-04-30T02:44:59.411Z,73.42
2023-04-30T02:47:27.249Z,73.64
2023-04-30T02:49:55.108Z,72.85
2023-04-30T02:52:24.473Z,72.72
2023-04-30T02:54:52.240Z,72.22
2023-04-30T02:57:19.972Z,72.15
2023-04-30T02:59:47.733Z,72.12
2023-04-30T03:02:15.632Z,72.46
2023-04-30T03:04:43.381Z,72.42
2023-04-30T03:07:11.498Z,72.38
2023-04-30T03:09:40.713Z,72.75
2023-04-30T03:12:08.476Z,72.56
2023-04-30T03:14:36.222Z,72.25
2023-04-30T03:17:04.017Z,72.00
2023-04-30T03:19:32.062Z,72.58
2023-04-30T03:22:00.017Z,71.96
2023-04-30T03:24:27.792Z,71.92
2023-04-30T03:26:56.920Z,71.49
2023-04-30T03:29:24.740Z,70.87
2023-04-30T03:31:52.771Z,70.90
2023-04-30T03:34:20.654Z,70.74
2023-04-30T03:36:48.435Z,70.03
2023-04-30T03:39:16.427Z,70.11
2023-04-30T03:41:44.177Z,69.81
2023-04-30T03:44:16.008Z,70.68
2023-04-30T03:46:44.281Z,70.19
2023-04-30T03:49:12.240Z,69.80
2023-04-30T03:51:41.944Z,68.75
2023-04-30T03:54:10.159Z,68.38
2023-04-30T03:56:38.579Z,68.44
2023-04-30T03:59:06.681Z,68.96
2023-04-30T04:01:35.864Z,69.06
2023-04-30T04:04:03.696Z,69.00
2023-04-30T04:06:31.861Z,69.05
2023-04-30T04:08:59.684Z,68.60
2023-04-30T04:11:27.456Z,68.33
2023-04-30T04:13:55.723Z,68.35
2023-04-30T04:16:23.538Z,69.14
2023-04-30T04:18:52.655Z,68.25
2023-04-30T04:21:20.428Z,68.26
2023-04-30T04:23:48.224Z,67.54
2023-04-30T04:26:16.584Z,67.60
2023-04-30T04:28:44.325Z,67.94
2023-04-30T04:31:12.882Z,68.46
2023-04-30T04:33:40.685Z,68.64
2023-04-30T04:36:09.923Z,68.78
2023-04-30T04:38:37.657Z,69.09
2023-04-30T04:41:05.455Z,68.87
2023-04-30T04:43:33.227Z,69.34
2023-04-30T04:46:01.116Z,69.26
2023-04-30T04:48:28.873Z,69.24
2023-04-30T04:50:56.637Z,69.46
2023-04-30T04:53:25.834Z,69.03
2023-04-30T04:55:53.594Z,68.97
2023-04-30T04:58:21.368Z,69.54
2023-04-30T05:00:49.102Z,69.05
2023-04-30T05:03:17.022Z,69.18
2023-04-30T05:05:44.819Z,69.32
2023-04-30T05:08:12.615Z,68.51
2023-04-30T05:10:41.736Z,69.05
2023-04-30T05:13:09.506Z,68.85
2023-04-30T05:15:37.271Z,68.29
2023-04-30T05:18:05.260Z,68.02
2023-04-30T05:20:33.114Z,67.26
2023-04-30T05:23:01.002Z,66.90
2023-04-30T05:25:29.597Z,67.05
2023-04-30T05:27:58.768Z,67.13
2023-04-30T05:30:26.657Z,66.40
2023-04-30T05:32:54.726Z,66.27
2023-04-30T05:35:22.554Z,66.15
2023-04-30T05:37:50.358Z,65.88
2023-04-30T05:40:18.399Z,65.57
2023-04-30T05:42:46.180Z,65.70
2023-04-30T05:45:17.288Z,64.96
2023-04-30T05:47:45.316Z,63.93
2023-04-30T05:50:13.293Z,63.74
2023-04-30T05:52:41.076Z,63.85
2023-04-30T05:55:11.804Z,63.07
2023-04-30T05:57:39.596Z,62.66
2023-04-30T06:00:08.868Z,62.69
2023-04-30T06:02:38.134Z,62.57
2023-04-30T06:05:06.789Z,61.04
2023-04-30T06:07:34.613Z,61.32
2023-04-30T06:10:02.528Z,61.11
2023-04-30T06:12:30.343Z,60.25
2023-04-30T06:14:58.209Z,59.08
2023-04-30T06:17:26.011Z,58.99
2023-04-30T06:19:55.584Z,58.69
2023-04-30T06:22:23.669Z,58.92
2023-04-30T06:24:51.429Z,58.64
2023-04-30T06:27:19.211Z,58.90
2023-04-30T06:29:46.984Z,59.20
2023-04-30T06:32:14.759Z,58.23
2023-04-30T06:34:42.504Z,58.17
2023-04-30T06:37:11.644Z,56.87
2023-04-30T06:39:39.402Z,56.30
2023-04-30T06:42:07.171Z,56.01
2023-04-30T06:44:34.952Z,55.88
2023-04-30T06:47:02.756Z,56.05
2023-04-30T06:49:30.551Z,55.98
2023-04-30T06:51:58.593Z,55.11
2023-04-30T06:54:27.815Z,55.45
2023-04-30T06:56:55.667Z,55.14
2023-04-30T06:59:23.439Z,55.73
2023-04-30T07:01:51.332Z,55.27
2023-04-30T07:04:20.094Z,53.73
2023-04-30T07:06:47.920Z,53.90
2023-04-30T07:09:16.645Z,53.54
2023-04-30T07:11:45.790Z,53.07
2023-04-30T07:14:13.612Z,52.57
2023-04-30T07:16:41.412Z,52.56
2023-04-30T07:19:09.199Z,51.70
2023-04-30T07:21:36.940Z,50.96
2023-04-30T07:24:05.460Z,51.77
2023-04-30T07:26:33.189Z,51.09
2023-04-30T07:29:02.385Z,51.47
2023-04-30T07:31:30.414Z,50.92
2023-04-30T07:33:58.533Z,50.05
2023-04-30T07:36:27.460Z,49.58
2023-04-30T07:38:55.264Z,48.52
2023-04-30T07:41:23.098Z,49.78
2023-04-30T07:43:50.923Z,48.56
2023-04-30T07:46:20.129Z,49.25
2023-04-30T07:48:47.983Z,48.35
2023-04-30T07:51:15.723Z,48.00
2023-04-30T07:53:43.496Z,48.01
2023-04-30T07:56:11.231Z,48.16
2023-04-30T07:58:39.018Z,46.99
2023-04-30T08:01:06.834Z,46.51
2023-04-30T08:03:36.801Z,46.02
2023-04-30T08:06:05.302Z,46.38
2023-04-30T08:08:33.126Z,46.33
2023-04-30T08:11:00.980Z,47.33
2023-04-30T08:13:28.730Z,46.00
2023-04-30T08:15:56.469Z,45.10
2023-04-30T08:18:24.238Z,45.33
2023-04-30T08:20:53.366Z,45.81
2023-04-30T08:23:21.188Z,44.91
2023-04-30T08:25:48.949Z,45.00
2023-04-30T08:28:16.744Z,44.18
2023-04-30T08:30:44.690Z,44.55
2023-04-30T08:33:12.671Z,45.21
2023-04-30T08:35:40.505Z,43.92
2023-04-30T08:38:10.068Z,43.97
2023-04-30T08:40:50.879Z,42.04
2023-04-30T08:43:19.967Z,42.93
2023-04-30T08:45:47.844Z,42.85
2023-04-30T08:48:16.629Z,42.91
2023-04-30T08:50:44.523Z,42.67
2023-04-30T08:53:15.421Z,42.23
2023-04-30T08:55:43.182Z,43.11
2023-04-30T08:58:11.397Z,43.58
2023-04-30T09:00:39.936Z,42.22
2023-04-30T09:03:08.624Z,42.21
2023-04-30T09:05:37.984Z,43.78
2023-04-30T09:08:06.582Z,40.78
2023-04-30T09:10:36.615Z,40.77
2023-04-30T09:13:07.487Z,40.83
2023-04-30T09:15:36.399Z,40.82
2023-04-30T09:18:09.102Z,39.23
2023-04-30T09:20:37.067Z,40.41
2023-04-30T09:23:08.982Z,41.86
2023-04-30T09:25:42.265Z,41.77
2023-04-30T09:28:11.525Z,40.51
2023-04-30T09:30:39.848Z,39.35
2023-04-30T09:33:10.769Z,37.87
2023-04-30T09:35:41.739Z,38.19
2023-04-30T09:38:09.983Z,38.45
2023-04-30T09:40:38.600Z,38.48
2023-04-30T09:43:08.192Z,40.48
2023-04-30T09:45:44.633Z,37.44
2023-04-30T09:48:16.860Z,37.43
2023-04-30T09:50:47.245Z,39.07
2023-04-30T09:53:17.901Z,37.02
2023-04-30T09:55:47.126Z,38.18
2023-04-30T09:58:17.770Z,37.10
2023-04-30T10:00:48.311Z,36.69
2023-04-30T10:03:16.561Z,36.47
2023-04-30T10:05:47.347Z,36.35
2023-04-30T10:08:20.595Z,36.13
2023-04-30T10:10:52.450Z,35.14
2023-04-30T10:13:21.861Z,34.20
2023-04-30T10:15:51.828Z,35.54
2023-04-30T10:18:21.563Z,35.30
2023-04-30T10:20:51.903Z,34.84
2023-04-30T10:23:19.762Z,34.97
2023-04-30T10:25:47.584Z,34.38
2023-04-30T10:28:15.606Z,35.27
2023-04-30T10:30:45.314Z,37.70
2023-04-30T10:33:19.597Z,37.65
2023-04-30T10:35:52.463Z,35.61
2023-04-30T10:38:23.933Z,34.87
2023-04-30T10:40:52.086Z,36.02
2023-04-30T10:43:22.258Z,37.35
2023-04-30T10:45:51.622Z,37.52
2023-04-30T10:48:25.431Z,36.07
2023-04-30T10:50:54.287Z,33.22
2023-04-30T10:53:23.033Z,33.50
2023-04-30T10:55:54.889Z,34.40
2023-04-30T10:58:27.674Z,31.86
2023-04-30T11:01:05.271Z,33.10
2023-04-30T11:03:33.747Z,33.75
2023-04-30T11:06:03.956Z,32.25
2023-04-30T11:08:35.755Z,31.48
2023-04-30T11:11:05.195Z,31.27
2023-04-30T11:13:43.274Z,31.13
2023-04-30T11:16:12.597Z,33.08
2023-04-30T11:18:45.760Z,34.97
2023-04-30T11:21:13.916Z,32.88
2023-04-30T11:23:43.530Z,31.83
2023-04-30T11:26:11.806Z,31.11
2023-04-30T11:28:39.677Z,30.14
2023-04-30T11:31:07.644Z,30.34
2023-04-30T11:33:36.976Z,31.32
2023-04-30T11:36:05.300Z,31.26
2023-04-30T11:38:38.600Z,32.07
2023-04-30T11:41:06.493Z,31.88
2023-04-30T11:43:35.529Z,30.98
2023-04-30T11:46:06.098Z,30.07
2023-04-30T11:48:36.820Z,32.17
2023-04-30T11:51:06.445Z,30.47
2023-04-30T11:53:34.214Z,30.03
2023-04-30T11:56:06.423Z,32.41
2023-04-30T11:58:38.106Z,32.43
2023-04-30T12:01:06.477Z,31.13
2023-04-30T12:03:34.402Z,30.17
2023-04-30T12:06:03.696Z,30.02
2023-04-30T12:08:31.489Z,31.32
2023-04-30T12:10:59.264Z,33.14
2023-04-30T12:13:26.990Z,32.08
2023-04-30T12:16:01.733Z,31.25
2023-04-30T12:18:29.597Z,31.81
2023-04-30T12:20:57.488Z,31.32
2023-04-30T12:23:26.833Z,30.58
2023-04-30T12:25:54.685Z,31.49
2023-04-30T12:28:24.525Z,32.42
2023-04-30T12:30:54.682Z,32.70
2023-04-30T12:33:22.609Z,31.77
2023-04-30T12:35:54.080Z,32.78
2023-04-30T12:38:23.348Z,33.95
2023-04-30T12:40:52.499Z,34.71
2023-04-30T12:43:20.241Z,34.47
2023-04-30T12:45:51.637Z,34.08
2023-04-30T12:48:20.697Z,33.06
2023-04-30T12:50:56.508Z,32.38
2023-04-30T12:53:24.813Z,30.51
2023-04-30T12:56:10.596Z,32.75
2023-04-30T12:58:39.432Z,33.19
2023-04-30T13:01:11.398Z,34.17
2023-04-30T13:03:39.430Z,33.16
2023-04-30T13:06:07.463Z,32.16
2023-04-30T13:08:45.645Z,31.35
2023-04-30T13:11:15.386Z,32.16
2023-04-30T13:13:43.590Z,31.78
2023-04-30T13:16:11.521Z,30.26
2023-04-30T13:18:39.308Z,31.36
2023-04-30T13:21:07.276Z,30.49
2023-04-30T13:23:44.539Z,30.61
2023-04-30T13:26:22.692Z,31.12
2023-04-30T13:28:50.453Z,31.19
2023-04-30T13:31:18.511Z,29.79
2023-04-30T13:33:46.391Z,30.20
2023-04-30T13:36:14.256Z,31.08
2023-04-30T13:38:42.061Z,30.99
2023-04-30T13:41:09.829Z,29.60
2023-04-30T13:43:42.068Z,29.91
2023-04-30T13:46:10.280Z,29.87
2023-04-30T13:48:38.152Z,29.31
2023-04-30T13:51:06.044Z,29.37
2023-04-30T13:53:33.826Z,29.53
2023-04-30T13:56:03.345Z,30.44
2023-04-30T13:58:31.172Z,30.31
2023-04-30T14:01:00.499Z,30.79
2023-04-30T14:03:28.410Z,31.25
2023-04-30T14:05:56.449Z,29.08
2023-04-30T14:08:24.267Z,30.03
2023-04-30T14:10:52.443Z,29.16
2023-04-30T14:13:20.297Z,29.33
2023-04-30T14:15:48.186Z,27.79
2023-04-30T14:18:18.447Z,28.84
2023-04-30T14:20:46.275Z,29.84
2023-04-30T14:23:14.113Z,29.10
2023-04-30T14:25:42.046Z,30.38
2023-04-30T14:28:10.035Z,30.77
2023-04-30T14:30:37.778Z,30.62
2023-04-30T14:33:11.136Z,28.97
2023-04-30T14:35:41.585Z,30.24
2023-04-30T14:38:09.520Z,28.52
2023-04-30T14:40:37.466Z,28.76
2023-04-30T14:43:05.437Z,28.67
2023-04-30T14:45:34.164Z,28.55
2023-04-30T14:48:03.947Z,28.07
2023-04-30T14:50:33.323Z,28.87
2023-04-30T14:53:02.623Z,30.18
2023-04-30T14:55:30.385Z,28.98
2023-04-30T14:57:58.550Z,29.56
2023-04-30T15:00:26.437Z,28.44
2023-04-30T15:02:54.306Z,28.10
2023-04-30T15:05:22.308Z,27.75
2023-04-30T15:07:50.169Z,29.86
2023-04-30T15:10:19.447Z,31.07
2023-04-30T15:12:47.221Z,31.84
2023-04-30T15:15:16.264Z,32.15
2023-04-30T15:17:46.139Z,32.27
2023-04-30T15:20:14.121Z,31.94
2023-04-30T15:22:43.250Z,31.08
2023-04-30T15:25:11.106Z,30.44
2023-04-30T15:27:41.567Z,29.62
2023-04-30T15:30:10.589Z,31.06
2023-04-30T15:32:38.960Z,31.81
2023-04-30T15:35:07.568Z,31.28
2023-04-30T15:37:35.598Z,31.40
2023-04-30T15:40:04.766Z,32.30
2023-04-30T15:42:32.600Z,31.78
2023-04-30T15:45:01.857Z,31.44
2023-04-30T15:47:29.642Z,31.13
2023-04-30T15:49:57.488Z,31.42
2023-04-30T15:52:25.572Z,31.48
2023-04-30T15:54:53.397Z,31.00
2023-04-30T15:57:21.740Z,31.79
2023-04-30T15:59:49.554Z,30.71
2023-04-30T16:02:18.649Z,31.22
2023-04-30T16:04:46.392Z,30.70
2023-04-30T16:07:14.141Z,32.71
2023-04-30T16:09:45.745Z,30.96
2023-04-30T16:12:13.617Z,31.53
2023-04-30T16:14:41.403Z,31.24
2023-04-30T16:17:09.688Z,30.10
2023-04-30T16:19:38.862Z,30.37
2023-04-30T16:22:08.949Z,31.56
2023-04-30T16:24:36.953Z,32.76
2023-04-30T16:27:04.863Z,31.64
2023-04-30T16:29:32.632Z,32.24
2023-04-30T16:32:00.537Z,33.31
2023-04-30T16:34:28.314Z,32.84
2023-04-30T16:36:57.441Z,32.27
2023-04-30T16:39:25.201Z,32.09
2023-04-30T16:41:52.947Z,31.67
2023-04-30T16:44:21.812Z,32.27
2023-04-30T16:46:50.593Z,31.77
2023-04-30T16:49:18.336Z,32.57
2023-04-30T16:51:46.081Z,32.40
2023-04-30T16:54:15.223Z,32.84
2023-04-30T16:56:43.016Z,33.10
2023-04-30T16:59:11.040Z,33.52
2023-04-30T17:01:38.877Z,33.71
2023-04-30T17:04:06.761Z,33.64
2023-04-30T17:06:35.540Z,33.94
2023-04-30T17:09:03.554Z,34.14
2023-04-30T17:11:32.680Z,33.86
2023-04-30T17:14:00.539Z,34.60
2023-04-30T17:16:28.373Z,35.20
2023-04-30T17:18:56.165Z,34.69
2023-04-30T17:21:23.962Z,34.89
2023-04-30T17:23:51.726Z,34.64
2023-04-30T17:26:20.355Z,35.77
2023-04-30T17:28:49.495Z,35.34
2023-04-30T17:31:17.307Z,36.00
2023-04-30T17:33:46.143Z,36.36
2023-04-30T17:36:14.241Z,36.54
2023-04-30T17:38:42.074Z,36.73
2023-04-30T17:41:09.831Z,37.12
2023-04-30T17:43:37.616Z,38.57
2023-04-30T17:46:06.885Z,37.94
2023-04-30T17:48:34.700Z,38.48
2023-04-30T17:51:02.708Z,38.04
2023-04-30T17:53:30.516Z,38.31
2023-04-30T17:55:59.402Z,38.99
2023-04-30T17:58:28.144Z,38.26
2023-04-30T18:00:56.584Z,39.22
2023-04-30T18:03:25.866Z,39.13
2023-04-30T18:05:53.778Z,39.59
2023-04-30T18:08:21.523Z,39.62
2023-04-30T18:10:49.515Z,39.52
2023-04-30T18:13:17.364Z,39.93
2023-04-30T18:15:45.134Z,40.23
2023-04-30T18:18:13.049Z,40.56
2023-04-30T18:20:42.392Z,40.33
2023-04-30T18:23:10.279Z,39.86
2023-04-30T18:25:38.084Z,40.85
2023-04-30T18:28:06.139Z,40.49
2023-04-30T18:30:34.768Z,40.85
2023-04-30T18:33:02.654Z,41.14
2023-04-30T18:35:30.469Z,41.42
2023-04-30T18:37:59.738Z,41.73
2023-04-30T18:40:28.287Z,42.07
2023-04-30T18:42:56.903Z,41.94
2023-04-30T18:45:25.049Z,42.63
2023-04-30T18:47:52.898Z,42.66
2023-04-30T18:50:21.612Z,42.94
2023-04-30T18:52:49.554Z,43.26
2023-04-30T18:55:18.898Z,43.43
2023-04-30T18:57:46.662Z,43.70
2023-04-30T19:00:15.232Z,43.90
2023-04-30T19:02:44.189Z,43.92
2023-04-30T19:05:12.757Z,44.22
2023-04-30T19:07:40.934Z,44.33
2023-04-30T19:10:09.344Z,44.00
2023-04-30T19:12:38.597Z,44.66
2023-04-30T19:15:08.154Z,44.66
2023-04-30T19:17:36.415Z,44.83
2023-04-30T19:20:04.750Z,44.62
2023-04-30T19:22:32.614Z,44.91
2023-04-30T19:25:00.480Z,45.04
2023-04-30T19:27:28.214Z,45.52
2023-04-30T19:29:58.532Z,45.23
2023-04-30T19:32:26.751Z,45.41
2023-04-30T19:34:54.940Z,45.41
2023-04-30T19:37:22.945Z,45.51
2023-04-30T19:39:50.786Z,45.87
2023-04-30T19:42:18.540Z,45.58
2023-04-30T19:44:46.344Z,45.85
2023-04-30T19:47:15.461Z,45.68
2023-04-30T19:49:44.625Z,45.87
2023-04-30T19:52:12.409Z,46.38
2023-04-30T19:54:40.411Z,46.13
2023-04-30T19:57:08.168Z,45.83
2023-04-30T19:59:36.016Z,45.98
2023-04-30T20:02:03.878Z,46.24
2023-04-30T20:04:33.037Z,46.80
2023-04-30T20:07:01.240Z,46.93
2023-04-30T20:09:29.046Z,46.94
2023-04-30T20:11:56.841Z,46.52
2023-04-30T20:14:24.888Z,47.01
2023-04-30T20:16:54.430Z,47.66
2023-04-30T20:19:23.301Z,46.98
2023-04-30T20:21:52.515Z,47.22
2023-04-30T20:24:21.660Z,46.89
2023-04-30T20:26:49.493Z,47.96
2023-04-30T20:29:18.586Z,48.02
2023-04-30T20:31:46.653Z,47.38
2023-04-30T20:34:14.585Z,47.62
2023-04-30T20:36:42.440Z,48.54
2023-04-30T20:39:11.570Z,47.83
2023-04-30T20:41:39.438Z,48.23
2023-04-30T20:44:07.253Z,48.97
2023-04-30T20:46:36.287Z,48.91
2023-04-30T20:49:05.140Z,49.64
2023-04-30T20:51:33.093Z,49.11
2023-04-30T20:54:00.917Z,49.29
2023-04-30T20:56:30.267Z,49.27
2023-04-30T20:58:58.070Z,50.02
2023-04-30T21:01:25.919Z,49.72
2023-04-30T21:03:55.639Z,49.44
2023-04-30T21:06:23.502Z,49.89
2023-04-30T21:08:51.319Z,50.36
2023-04-30T21:11:19.453Z,49.89
2023-04-30T21:13:51.273Z,50.48
2023-04-30T21:16:19.482Z,49.99
2023-04-30T21:18:48.798Z,50.63
2023-04-30T21:21:17.024Z,50.62
2023-04-30T21:23:47.361Z,50.52
2023-04-30T21:26:23.351Z,51.14
2023-04-30T21:28:52.811Z,51.10
2023-04-30T21:31:21.003Z,50.83
2023-04-30T21:33:48.947Z,51.21
2023-04-30T21:36:18.263Z,51.71
2023-04-30T21:38:46.530Z,51.94
2023-04-30T21:41:15.455Z,51.60
2023-04-30T21:43:43.554Z,51.79
2023-04-30T21:46:13.596Z,52.27
2023-04-30T21:48:41.965Z,52.19
2023-04-30T21:51:15.029Z,51.71
2023-04-30T21:53:43.417Z,52.47
2023-04-30T21:56:11.959Z,52.33
2023-04-30T21:58:40.492Z,52.47
2023-04-30T22:01:08.445Z,52.39
2023-04-30T22:03:38.132Z,52.63
2023-04-30T22:06:06.402Z,52.84
2023-04-30T22:08:34.227Z,53.13
2023-04-30T22:11:04.746Z,53.08
2023-04-30T22:13:32.592Z,53.10
2023-04-30T22:16:03.545Z,53.16
2023-04-30T22:18:31.643Z,53.51
2023-04-30T22:21:02.313Z,53.65
2023-04-30T22:23:30.322Z,53.57
2023-04-30T22:25:58.136Z,53.35
2023-04-30T22:28:26.284Z,53.82
2023-04-30T22:30:59.372Z,53.79
2023-04-30T22:33:27.648Z,53.94
2023-04-30T22:35:56.218Z,54.38
2023-04-30T22:38:25.608Z,54.24
2023-04-30T22:40:53.404Z,53.88
2023-04-30T22:43:21.469Z,54.70
2023-04-30T22:45:49.563Z,54.51
2023-04-30T22:48:17.766Z,54.68
2023-04-30T22:50:45.924Z,54.79
2023-04-30T22:53:14.449Z,54.87
2023-04-30T22:55:43.759Z,54.56
2023-04-30T22:58:11.584Z,54.87
2023-04-30T23:00:39.722Z,54.61
2023-04-30T23:03:07.640Z,54.50
2023-04-30T23:05:35.563Z,54.88
2023-04-30T23:08:04.434Z,54.85
2023-04-30T23:10:32.323Z,55.06
2023-04-30T23:13:01.540Z,54.93
2023-04-30T23:15:29.732Z,55.09
2023-04-30T23:18:00.228Z,55.15
2023-04-30T23:20:28.477Z,55.23
2023-04-30T23:22:56.510Z,55.36
2023-04-30T23:25:24.620Z,55.54
2023-04-30T23:27:52.815Z,55.44
2023-04-30T23:30:23.504Z,55.46
2023-04-30T23:32:51.380Z,55.44
2023-04-30T23:35:19.378Z,55.38
2023-04-30T23:37:47.530Z,55.32
2023-04-30T23:40:15.958Z,55.64
2023-04-30T23:42:43.794Z,55.96
2023-04-30T23:45:12.048Z,55.91
2023-04-30T23:47:41.411Z,55.94
2023-04-30T23:50:10.362Z,55.95
2023-04-30T23:52:38.826Z,56.02
2023-04-30T23:55:07.854Z,55.94
2023-04-30T23:57:35.965Z,56.13
